sensor_id;sensor_type;location;lat;lon;timestamp;temperature;humidity
34574;DHT22;20809;49.594;8.734;2023-02-18T00:01:14;10.80;99.90
34574;DHT22;20809;49.594;8.734;2023-02-18T00:04:16;10.80;99.90
34574;DHT22;20809;49.594;8.734;2023-02-18T00:07:17;10.80;99.90
34574;DHT22;20809;49.594;8.734;2023-02-18T00:10:20;10.80;99.90
34574;DHT22;20809;49.594;8.734;2023-02-18T00:13:21;10.90;99.90
34574;DHT22;20809;49.594;8.734;2023-02-18T00:16:23;10.90;99.90
34574;DHT22;20809;49.594;8.734;2023-02-18T00:19:25;10.90;99.90
34574;DHT22;20809;49.594;8.734;2023-02-18T00:22:25;10.90;99.90
34574;DHT22;20809;49.594;8.734;2023-02-18T00:25:26;10.90;99.90
34574;DHT22;20809;49.594;8.734;2023-02-18T00:28:27;10.90;99.90
34574;DHT22;20809;49.594;8.734;2023-02-18T00:31:30;10.90;99.90
34574;DHT22;20809;49.594;8.734;2023-02-18T00:34:32;10.90;99.90
34574;DHT22;20809;49.594;8.734;2023-02-18T00:37:33;10.90;99.90
34574;DHT22;20809;49.594;8.734;2023-02-18T00:40:37;10.90;99.90
34574;DHT22;20809;49.594;8.734;2023-02-18T00:43:38;10.90;99.90
34574;DHT22;20809;49.594;8.734;2023-02-18T00:46:42;10.90;99.90
34574;DHT22;20809;49.594;8.734;2023-02-18T00:49:43;10.90;99.90
34574;DHT22;20809;49.594;8.734;2023-02-18T00:52:44;10.90;99.90
34574;DHT22;20809;49.594;8.734;2023-02-18T00:55:45;10.90;99.90
34574;DHT22;20809;49.594;8.734;2023-02-18T00:58:47;10.90;99.90
34574;DHT22;20809;49.594;8.734;2023-02-18T01:01:48;10.90;99.90
34574;DHT22;20809;49.594;8.734;2023-02-18T01:04:49;10.90;99.90
34574;DHT22;20809;49.594;8.734;2023-02-18T01:07:50;10.90;99.90
34574;DHT22;20809;49.594;8.734;2023-02-18T01:10:54;10.90;99.90
34574;DHT22;20809;49.594;8.734;2023-02-18T01:13:55;10.90;99.90
34574;DHT22;20809;49.594;8.734;2023-02-18T01:16:56;10.90;99.90
34574;DHT22;20809;49.594;8.734;2023-02-18T01:19:57;10.90;99.90
34574;DHT22;20809;49.594;8.734;2023-02-18T01:22:59;10.90;99.90
34574;DHT22;20809;49.594;8.734;2023-02-18T01:26:00;10.90;99.90
34574;DHT22;20809;49.594;8.734;2023-02-18T01:29:00;10.90;99.90
34574;DHT22;20809;49.594;8.734;2023-02-18T01:32:01;10.90;99.90
34574;DHT22;20809;49.594;8.734;2023-02-18T01:35:03;10.90;99.90
34574;DHT22;20809;49.594;8.734;2023-02-18T01:38:05;11.00;99.90
34574;DHT22;20809;49.594;8.734;2023-02-18T01:41:06;11.00;99.90
34574;DHT22;20809;49.594;8.734;2023-02-18T01:47:16;10.90;99.90
34574;DHT22;20809;49.594;8.734;2023-02-18T01:50:17;11.00;99.90
34574;DHT22;20809;49.594;8.734;2023-02-18T01:53:25;11.00;99.90
34574;DHT22;20809;49.594;8.734;2023-02-18T01:59:15;11.00;99.90
34574;DHT22;20809;49.594;8.734;2023-02-18T02:02:20;11.00;99.90
34574;DHT22;20809;49.594;8.734;2023-02-18T02:05:28;11.00;99.90
34574;DHT22;20809;49.594;8.734;2023-02-18T02:08:30;11.10;99.90
34574;DHT22;20809;49.594;8.734;2023-02-18T02:18:42;11.10;99.90
34574;DHT22;20809;49.594;8.734;2023-02-18T02:35:25;11.20;99.90
34574;DHT22;20809;49.594;8.734;2023-02-18T02:38:39;11.20;99.90
34574;DHT22;20809;49.594;8.734;2023-02-18T02:41:54;11.20;99.90
34574;DHT22;20809;49.594;8.734;2023-02-18T02:45:53;11.20;99.90
34574;DHT22;20809;49.594;8.734;2023-02-18T02:52:05;11.20;99.90
34574;DHT22;20809;49.594;8.734;2023-02-18T02:55:11;11.20;99.90
34574;DHT22;20809;49.594;8.734;2023-02-18T02:58:15;11.20;99.90
34574;DHT22;20809;49.594;8.734;2023-02-18T03:07:42;11.20;99.90
34574;DHT22;20809;49.594;8.734;2023-02-18T03:11:03;11.10;99.90
34574;DHT22;20809;49.594;8.734;2023-02-18T03:21:43;11.10;99.90
34574;DHT22;20809;49.594;8.734;2023-02-18T03:24:46;11.10;99.90
34574;DHT22;20809;49.594;8.734;2023-02-18T03:28:13;11.10;99.90
34574;DHT22;20809;49.594;8.734;2023-02-18T03:31:17;11.10;99.90
34574;DHT22;20809;49.594;8.734;2023-02-18T03:34:27;11.10;99.90
34574;DHT22;20809;49.594;8.734;2023-02-18T03:37:31;11.10;99.90
34574;DHT22;20809;49.594;8.734;2023-02-18T03:40:35;11.10;99.90
34574;DHT22;20809;49.594;8.734;2023-02-18T03:43:36;11.10;99.90
34574;DHT22;20809;49.594;8.734;2023-02-18T03:46:40;11.10;99.90
34574;DHT22;20809;49.594;8.734;2023-02-18T03:49:43;11.10;99.90
34574;DHT22;20809;49.594;8.734;2023-02-18T03:52:44;11.10;99.90
34574;DHT22;20809;49.594;8.734;2023-02-18T03:55:45;11.10;99.90
34574;DHT22;20809;49.594;8.734;2023-02-18T03:58:45;11.10;99.90
34574;DHT22;20809;49.594;8.734;2023-02-18T04:01:46;11.10;99.90
34574;DHT22;20809;49.594;8.734;2023-02-18T04:04:47;11.10;99.90
34574;DHT22;20809;49.594;8.734;2023-02-18T04:07:48;11.10;99.90
34574;DHT22;20809;49.594;8.734;2023-02-18T04:10:49;11.10;99.90
34574;DHT22;20809;49.594;8.734;2023-02-18T04:13:49;11.10;99.90
34574;DHT22;20809;49.594;8.734;2023-02-18T04:16:50;11.10;99.90
34574;DHT22;20809;49.594;8.734;2023-02-18T04:19:51;11.10;99.90
34574;DHT22;20809;49.594;8.734;2023-02-18T04:22:52;11.10;99.90
34574;DHT22;20809;49.594;8.734;2023-02-18T04:25:53;11.10;99.90
34574;DHT22;20809;49.594;8.734;2023-02-18T04:28:54;11.10;99.90
34574;DHT22;20809;49.594;8.734;2023-02-18T04:31:55;11.10;99.90
34574;DHT22;20809;49.594;8.734;2023-02-18T04:34:56;11.10;99.90
34574;DHT22;20809;49.594;8.734;2023-02-18T04:37:57;11.10;99.90
34574;DHT22;20809;49.594;8.734;2023-02-18T04:40:57;11.10;99.90
34574;DHT22;20809;49.594;8.734;2023-02-18T04:43:58;11.10;99.90
34574;DHT22;20809;49.594;8.734;2023-02-18T04:47:00;11.10;99.90
34574;DHT22;20809;49.594;8.734;2023-02-18T04:50:01;11.10;99.90
34574;DHT22;20809;49.594;8.734;2023-02-18T04:53:01;11.10;99.90
34574;DHT22;20809;49.594;8.734;2023-02-18T04:56:03;11.10;99.90
34574;DHT22;20809;49.594;8.734;2023-02-18T04:59:03;11.10;99.90
34574;DHT22;20809;49.594;8.734;2023-02-18T05:02:04;11.10;99.90
34574;DHT22;20809;49.594;8.734;2023-02-18T05:05:05;11.10;99.90
34574;DHT22;20809;49.594;8.734;2023-02-18T05:08:07;11.10;99.90
34574;DHT22;20809;49.594;8.734;2023-02-18T05:11:08;11.10;99.90
34574;DHT22;20809;49.594;8.734;2023-02-18T05:14:09;11.00;99.90
34574;DHT22;20809;49.594;8.734;2023-02-18T05:17:10;11.10;99.90
34574;DHT22;20809;49.594;8.734;2023-02-18T05:20:11;11.00;99.90
34574;DHT22;20809;49.594;8.734;2023-02-18T05:23:12;11.10;99.90
34574;DHT22;20809;49.594;8.734;2023-02-18T05:26:14;11.10;99.90
34574;DHT22;20809;49.594;8.734;2023-02-18T05:29:15;11.10;99.90
34574;DHT22;20809;49.594;8.734;2023-02-18T05:32:16;11.10;99.90
34574;DHT22;20809;49.594;8.734;2023-02-18T05:35:16;11.10;99.90
34574;DHT22;20809;49.594;8.734;2023-02-18T05:38:20;11.10;99.90
34574;DHT22;20809;49.594;8.734;2023-02-18T05:41:21;11.10;99.90
34574;DHT22;20809;49.594;8.734;2023-02-18T05:44:22;11.10;99.90
34574;DHT22;20809;49.594;8.734;2023-02-18T05:47:32;11.10;99.90
34574;DHT22;20809;49.594;8.734;2023-02-18T05:50:34;11.00;99.90
34574;DHT22;20809;49.594;8.734;2023-02-18T05:53:35;10.90;99.90
34574;DHT22;20809;49.594;8.734;2023-02-18T05:56:36;10.90;99.90
34574;DHT22;20809;49.594;8.734;2023-02-18T05:59:37;10.80;99.90
34574;DHT22;20809;49.594;8.734;2023-02-18T06:02:38;10.90;99.90
34574;DHT22;20809;49.594;8.734;2023-02-18T06:05:38;10.90;99.90
34574;DHT22;20809;49.594;8.734;2023-02-18T06:08:39;10.90;99.90
34574;DHT22;20809;49.594;8.734;2023-02-18T06:11:40;10.90;99.90
34574;DHT22;20809;49.594;8.734;2023-02-18T06:14:41;10.90;99.90
34574;DHT22;20809;49.594;8.734;2023-02-18T06:17:42;10.90;99.90
34574;DHT22;20809;49.594;8.734;2023-02-18T06:20:43;10.90;99.90
34574;DHT22;20809;49.594;8.734;2023-02-18T06:23:44;10.90;99.90
34574;DHT22;20809;49.594;8.734;2023-02-18T06:26:45;10.90;99.90
34574;DHT22;20809;49.594;8.734;2023-02-18T06:29:46;10.90;99.90
34574;DHT22;20809;49.594;8.734;2023-02-18T06:32:47;10.90;99.90
34574;DHT22;20809;49.594;8.734;2023-02-18T06:35:56;10.90;99.90
34574;DHT22;20809;49.594;8.734;2023-02-18T06:38:57;10.90;99.90
34574;DHT22;20809;49.594;8.734;2023-02-18T06:41:58;10.90;99.90
34574;DHT22;20809;49.594;8.734;2023-02-18T06:44:59;10.90;99.90
34574;DHT22;20809;49.594;8.734;2023-02-18T06:48:00;10.90;99.90
34574;DHT22;20809;49.594;8.734;2023-02-18T06:51:01;10.90;99.90
34574;DHT22;20809;49.594;8.734;2023-02-18T06:54:03;10.90;99.90
34574;DHT22;20809;49.594;8.734;2023-02-18T06:57:05;10.90;99.90
34574;DHT22;20809;49.594;8.734;2023-02-18T07:00:06;10.90;99.90
34574;DHT22;20809;49.594;8.734;2023-02-18T07:03:07;10.80;99.90
34574;DHT22;20809;49.594;8.734;2023-02-18T07:06:08;10.80;99.90
34574;DHT22;20809;49.594;8.734;2023-02-18T07:09:09;10.90;99.90
34574;DHT22;20809;49.594;8.734;2023-02-18T07:12:10;10.90;99.90
34574;DHT22;20809;49.594;8.734;2023-02-18T07:15:11;10.90;99.90
34574;DHT22;20809;49.594;8.734;2023-02-18T07:18:12;10.90;99.90
34574;DHT22;20809;49.594;8.734;2023-02-18T07:21:13;10.90;99.90
34574;DHT22;20809;49.594;8.734;2023-02-18T07:24:14;11.00;99.90
34574;DHT22;20809;49.594;8.734;2023-02-18T07:27:14;11.10;99.90
34574;DHT22;20809;49.594;8.734;2023-02-18T07:30:16;11.10;99.90
34574;DHT22;20809;49.594;8.734;2023-02-18T07:33:16;11.20;99.90
34574;DHT22;20809;49.594;8.734;2023-02-18T07:36:17;11.30;99.90
34574;DHT22;20809;49.594;8.734;2023-02-18T07:39:18;11.20;99.90
34574;DHT22;20809;49.594;8.734;2023-02-18T07:42:20;11.30;99.90
34574;DHT22;20809;49.594;8.734;2023-02-18T07:45:20;11.30;99.90
34574;DHT22;20809;49.594;8.734;2023-02-18T07:48:21;11.40;99.90
34574;DHT22;20809;49.594;8.734;2023-02-18T07:51:22;11.40;99.90
34574;DHT22;20809;49.594;8.734;2023-02-18T07:54:24;11.50;99.90
34574;DHT22;20809;49.594;8.734;2023-02-18T07:57:25;11.50;99.90
34574;DHT22;20809;49.594;8.734;2023-02-18T08:00:25;11.50;99.90
34574;DHT22;20809;49.594;8.734;2023-02-18T08:03:29;11.50;99.90
34574;DHT22;20809;49.594;8.734;2023-02-18T08:06:34;11.50;99.90
34574;DHT22;20809;49.594;8.734;2023-02-18T08:09:35;11.50;99.90
34574;DHT22;20809;49.594;8.734;2023-02-18T08:12:36;11.50;99.90
34574;DHT22;20809;49.594;8.734;2023-02-18T08:15:37;11.50;99.90
34574;DHT22;20809;49.594;8.734;2023-02-18T08:18:39;11.50;99.90
34574;DHT22;20809;49.594;8.734;2023-02-18T08:21:39;11.60;99.90
34574;DHT22;20809;49.594;8.734;2023-02-18T08:24:40;11.70;99.90
34574;DHT22;20809;49.594;8.734;2023-02-18T08:27:41;11.80;99.90
34574;DHT22;20809;49.594;8.734;2023-02-18T08:30:46;11.90;99.90
34574;DHT22;20809;49.594;8.734;2023-02-18T08:33:47;12.10;99.90
34574;DHT22;20809;49.594;8.734;2023-02-18T08:36:48;12.20;99.90
34574;DHT22;20809;49.594;8.734;2023-02-18T08:39:49;12.30;99.90
34574;DHT22;20809;49.594;8.734;2023-02-18T08:42:50;12.30;99.90
34574;DHT22;20809;49.594;8.734;2023-02-18T08:45:51;12.40;99.90
34574;DHT22;20809;49.594;8.734;2023-02-18T08:48:52;12.40;99.90
34574;DHT22;20809;49.594;8.734;2023-02-18T08:51:53;12.40;99.90
34574;DHT22;20809;49.594;8.734;2023-02-18T08:54:54;12.40;99.90
34574;DHT22;20809;49.594;8.734;2023-02-18T08:57:55;12.40;99.90
34574;DHT22;20809;49.594;8.734;2023-02-18T09:01:00;12.60;99.90
34574;DHT22;20809;49.594;8.734;2023-02-18T09:04:01;12.70;99.90
34574;DHT22;20809;49.594;8.734;2023-02-18T09:07:02;12.80;99.90
34574;DHT22;20809;49.594;8.734;2023-02-18T09:10:04;12.90;99.90
34574;DHT22;20809;49.594;8.734;2023-02-18T09:13:05;13.00;99.90
34574;DHT22;20809;49.594;8.734;2023-02-18T09:16:10;12.80;99.90
34574;DHT22;20809;49.594;8.734;2023-02-18T09:19:10;12.70;99.90
34574;DHT22;20809;49.594;8.734;2023-02-18T09:22:12;12.70;99.90
34574;DHT22;20809;49.594;8.734;2023-02-18T09:25:12;12.70;99.90
34574;DHT22;20809;49.594;8.734;2023-02-18T09:28:13;12.70;99.90
34574;DHT22;20809;49.594;8.734;2023-02-18T09:31:17;12.70;99.90
34574;DHT22;20809;49.594;8.734;2023-02-18T09:34:18;12.70;99.90
34574;DHT22;20809;49.594;8.734;2023-02-18T09:37:18;12.70;99.90
34574;DHT22;20809;49.594;8.734;2023-02-18T09:40:32;12.70;99.90
34574;DHT22;20809;49.594;8.734;2023-02-18T09:43:42;12.70;99.90
34574;DHT22;20809;49.594;8.734;2023-02-18T09:46:54;12.70;99.90
34574;DHT22;20809;49.594;8.734;2023-02-18T09:50:02;12.70;99.90
34574;DHT22;20809;49.594;8.734;2023-02-18T09:53:03;12.80;99.90
34574;DHT22;20809;49.594;8.734;2023-02-18T09:56:05;12.70;99.90
34574;DHT22;20809;49.594;8.734;2023-02-18T09:59:15;12.80;99.90
34574;DHT22;20809;49.594;8.734;2023-02-18T10:02:17;12.80;99.90
34574;DHT22;20809;49.594;8.734;2023-02-18T10:05:20;12.90;99.90
34574;DHT22;20809;49.594;8.734;2023-02-18T10:08:45;12.80;99.90
34574;DHT22;20809;49.594;8.734;2023-02-18T10:11:57;12.90;99.90
34574;DHT22;20809;49.594;8.734;2023-02-18T10:15:00;12.80;99.90
34574;DHT22;20809;49.594;8.734;2023-02-18T10:18:02;12.80;99.90
34574;DHT22;20809;49.594;8.734;2023-02-18T10:21:11;12.70;99.90
34574;DHT22;20809;49.594;8.734;2023-02-18T10:27:31;12.80;99.90
34574;DHT22;20809;49.594;8.734;2023-02-18T10:30:39;12.90;99.90
34574;DHT22;20809;49.594;8.734;2023-02-18T10:33:59;12.80;99.90
34574;DHT22;20809;49.594;8.734;2023-02-18T10:46:59;12.50;99.90
34574;DHT22;20809;49.594;8.734;2023-02-18T10:50:28;12.40;99.90
34574;DHT22;20809;49.594;8.734;2023-02-18T10:53:33;12.40;99.90
34574;DHT22;20809;49.594;8.734;2023-02-18T10:56:39;12.50;99.90
34574;DHT22;20809;49.594;8.734;2023-02-18T10:59:40;12.60;99.90
34574;DHT22;20809;49.594;8.734;2023-02-18T11:02:41;12.70;99.90
34574;DHT22;20809;49.594;8.734;2023-02-18T11:05:44;12.60;99.90
34574;DHT22;20809;49.594;8.734;2023-02-18T11:08:47;12.70;99.90
34574;DHT22;20809;49.594;8.734;2023-02-18T11:11:48;12.70;99.90
34574;DHT22;20809;49.594;8.734;2023-02-18T11:15:04;12.70;99.90
34574;DHT22;20809;49.594;8.734;2023-02-18T11:18:26;12.70;99.90
34574;DHT22;20809;49.594;8.734;2023-02-18T11:21:36;12.60;99.90
34574;DHT22;20809;49.594;8.734;2023-02-18T11:24:38;12.60;99.90
34574;DHT22;20809;49.594;8.734;2023-02-18T11:27:45;12.70;99.90
34574;DHT22;20809;49.594;8.734;2023-02-18T11:30:53;12.80;99.90
34574;DHT22;20809;49.594;8.734;2023-02-18T11:33:58;12.80;99.90
34574;DHT22;20809;49.594;8.734;2023-02-18T11:37:16;13.00;99.90
34574;DHT22;20809;49.594;8.734;2023-02-18T11:40:31;13.20;99.90
34574;DHT22;20809;49.594;8.734;2023-02-18T11:43:33;13.20;99.90
34574;DHT22;20809;49.594;8.734;2023-02-18T11:46:34;13.20;99.90
34574;DHT22;20809;49.594;8.734;2023-02-18T11:49:35;13.30;99.90
34574;DHT22;20809;49.594;8.734;2023-02-18T11:52:41;13.40;99.90
34574;DHT22;20809;49.594;8.734;2023-02-18T11:55:53;13.40;99.90
34574;DHT22;20809;49.594;8.734;2023-02-18T11:58:56;13.30;99.90
34574;DHT22;20809;49.594;8.734;2023-02-18T12:05:22;13.20;99.90
34574;DHT22;20809;49.594;8.734;2023-02-18T12:08:27;13.30;99.90
34574;DHT22;20809;49.594;8.734;2023-02-18T12:11:33;13.30;99.90
34574;DHT22;20809;49.594;8.734;2023-02-18T12:14:35;13.20;99.90
34574;DHT22;20809;49.594;8.734;2023-02-18T12:18:17;13.10;99.90
34574;DHT22;20809;49.594;8.734;2023-02-18T12:21:29;13.10;99.90
34574;DHT22;20809;49.594;8.734;2023-02-18T12:24:48;13.00;99.90
34574;DHT22;20809;49.594;8.734;2023-02-18T12:27:58;13.00;99.90
34574;DHT22;20809;49.594;8.734;2023-02-18T12:38:03;12.80;99.90
34574;DHT22;20809;49.594;8.734;2023-02-18T12:52:11;12.90;99.90
34574;DHT22;20809;49.594;8.734;2023-02-18T12:58:37;13.10;99.90
34574;DHT22;20809;49.594;8.734;2023-02-18T13:05:03;13.20;99.90
34574;DHT22;20809;49.594;8.734;2023-02-18T13:12:20;13.00;99.90
34574;DHT22;20809;49.594;8.734;2023-02-18T13:15:18;13.00;99.90
34574;DHT22;20809;49.594;8.734;2023-02-18T13:18:36;13.00;99.90
34574;DHT22;20809;49.594;8.734;2023-02-18T13:21:38;13.00;99.90
34574;DHT22;20809;49.594;8.734;2023-02-18T13:24:43;12.90;99.90
34574;DHT22;20809;49.594;8.734;2023-02-18T13:34:36;13.00;99.90
34574;DHT22;20809;49.594;8.734;2023-02-18T13:41:10;13.10;99.90
34574;DHT22;20809;49.594;8.734;2023-02-18T13:47:46;12.90;99.90
34574;DHT22;20809;49.594;8.734;2023-02-18T13:50:49;12.90;99.90
34574;DHT22;20809;49.594;8.734;2023-02-18T13:53:53;12.80;99.90
34574;DHT22;20809;49.594;8.734;2023-02-18T13:57:06;12.90;99.90
34574;DHT22;20809;49.594;8.734;2023-02-18T14:00:20;12.90;99.90
34574;DHT22;20809;49.594;8.734;2023-02-18T14:07:16;12.90;99.90
34574;DHT22;20809;49.594;8.734;2023-02-18T14:13:37;12.80;99.90
34574;DHT22;20809;49.594;8.734;2023-02-18T14:26:28;12.60;99.90
34574;DHT22;20809;49.594;8.734;2023-02-18T14:29:29;12.60;99.90
34574;DHT22;20809;49.594;8.734;2023-02-18T14:32:30;12.50;99.90
34574;DHT22;20809;49.594;8.734;2023-02-18T14:42:45;12.40;99.90
34574;DHT22;20809;49.594;8.734;2023-02-18T14:46:04;12.40;99.90
34574;DHT22;20809;49.594;8.734;2023-02-18T14:49:38;12.30;99.90
34574;DHT22;20809;49.594;8.734;2023-02-18T14:52:55;12.30;99.90
34574;DHT22;20809;49.594;8.734;2023-02-18T14:56:03;12.20;99.90
34574;DHT22;20809;49.594;8.734;2023-02-18T14:59:05;12.20;99.90
34574;DHT22;20809;49.594;8.734;2023-02-18T15:02:24;12.10;99.90
34574;DHT22;20809;49.594;8.734;2023-02-18T15:05:31;12.10;99.90
34574;DHT22;20809;49.594;8.734;2023-02-18T15:08:36;12.10;99.90
34574;DHT22;20809;49.594;8.734;2023-02-18T15:11:41;12.10;99.90
34574;DHT22;20809;49.594;8.734;2023-02-18T15:14:45;12.10;99.90
34574;DHT22;20809;49.594;8.734;2023-02-18T15:17:47;12.00;99.90
34574;DHT22;20809;49.594;8.734;2023-02-18T15:20:49;12.00;99.90
34574;DHT22;20809;49.594;8.734;2023-02-18T15:23:50;12.10;99.90
34574;DHT22;20809;49.594;8.734;2023-02-18T15:26:52;12.00;99.90
34574;DHT22;20809;49.594;8.734;2023-02-18T15:30:02;12.00;99.90
34574;DHT22;20809;49.594;8.734;2023-02-18T15:33:10;12.00;99.90
34574;DHT22;20809;49.594;8.734;2023-02-18T15:36:13;12.00;99.90
34574;DHT22;20809;49.594;8.734;2023-02-18T15:39:14;11.90;99.90
34574;DHT22;20809;49.594;8.734;2023-02-18T15:42:35;11.80;99.90
34574;DHT22;20809;49.594;8.734;2023-02-18T15:45:42;11.70;99.90
34574;DHT22;20809;49.594;8.734;2023-02-18T15:48:47;11.70;99.90
34574;DHT22;20809;49.594;8.734;2023-02-18T15:51:56;11.50;99.90
34574;DHT22;20809;49.594;8.734;2023-02-18T15:55:02;11.40;99.90
34574;DHT22;20809;49.594;8.734;2023-02-18T15:58:06;11.20;99.90
34574;DHT22;20809;49.594;8.734;2023-02-18T16:01:28;11.10;99.90
34574;DHT22;20809;49.594;8.734;2023-02-18T16:04:32;11.00;99.90
34574;DHT22;20809;49.594;8.734;2023-02-18T16:07:48;11.00;99.90
34574;DHT22;20809;49.594;8.734;2023-02-18T16:13:59;11.00;99.90
34574;DHT22;20809;49.594;8.734;2023-02-18T16:17:15;10.90;99.90
34574;DHT22;20809;49.594;8.734;2023-02-18T16:20:26;10.90;99.90
34574;DHT22;20809;49.594;8.734;2023-02-18T16:23:57;10.90;99.90
34574;DHT22;20809;49.594;8.734;2023-02-18T16:27:00;10.90;99.90
34574;DHT22;20809;49.594;8.734;2023-02-18T16:30:26;10.90;99.90
34574;DHT22;20809;49.594;8.734;2023-02-18T16:33:28;10.80;99.90
34574;DHT22;20809;49.594;8.734;2023-02-18T16:36:29;10.80;99.90
34574;DHT22;20809;49.594;8.734;2023-02-18T16:39:32;10.80;99.90
34574;DHT22;20809;49.594;8.734;2023-02-18T16:42:33;10.90;99.90
34574;DHT22;20809;49.594;8.734;2023-02-18T16:45:40;10.90;99.90
34574;DHT22;20809;49.594;8.734;2023-02-18T16:48:44;10.80;99.90
34574;DHT22;20809;49.594;8.734;2023-02-18T16:51:47;10.80;99.90
34574;DHT22;20809;49.594;8.734;2023-02-18T16:54:48;10.80;99.90
34574;DHT22;20809;49.594;8.734;2023-02-18T16:57:49;10.80;99.90
34574;DHT22;20809;49.594;8.734;2023-02-18T17:00:50;10.80;99.90
34574;DHT22;20809;49.594;8.734;2023-02-18T17:03:52;10.70;99.90
34574;DHT22;20809;49.594;8.734;2023-02-18T17:06:53;10.80;99.90
34574;DHT22;20809;49.594;8.734;2023-02-18T17:09:54;10.70;99.90
34574;DHT22;20809;49.594;8.734;2023-02-18T17:12:55;10.70;99.90
34574;DHT22;20809;49.594;8.734;2023-02-18T17:15:57;10.70;99.90
34574;DHT22;20809;49.594;8.734;2023-02-18T17:18:58;10.70;99.90
34574;DHT22;20809;49.594;8.734;2023-02-18T17:21:59;10.70;99.90
34574;DHT22;20809;49.594;8.734;2023-02-18T17:25:16;10.70;99.90
34574;DHT22;20809;49.594;8.734;2023-02-18T17:28:18;10.70;99.90
34574;DHT22;20809;49.594;8.734;2023-02-18T17:31:32;10.70;99.90
34574;DHT22;20809;49.594;8.734;2023-02-18T17:34:33;10.70;99.90
34574;DHT22;20809;49.594;8.734;2023-02-18T17:37:37;10.70;99.90
34574;DHT22;20809;49.594;8.734;2023-02-18T17:40:37;10.70;99.90
34574;DHT22;20809;49.594;8.734;2023-02-18T17:43:38;10.60;99.90
34574;DHT22;20809;49.594;8.734;2023-02-18T17:46:39;10.60;99.90
34574;DHT22;20809;49.594;8.734;2023-02-18T17:49:40;10.60;99.90
34574;DHT22;20809;49.594;8.734;2023-02-18T17:52:41;10.60;99.90
34574;DHT22;20809;49.594;8.734;2023-02-18T17:55:43;10.60;99.90
34574;DHT22;20809;49.594;8.734;2023-02-18T17:58:44;10.60;99.90
34574;DHT22;20809;49.594;8.734;2023-02-18T18:01:46;10.60;99.90
34574;DHT22;20809;49.594;8.734;2023-02-18T18:04:46;10.50;99.90
34574;DHT22;20809;49.594;8.734;2023-02-18T18:07:48;10.50;99.90
34574;DHT22;20809;49.594;8.734;2023-02-18T18:10:54;10.50;99.90
34574;DHT22;20809;49.594;8.734;2023-02-18T18:13:58;10.50;99.90
34574;DHT22;20809;49.594;8.734;2023-02-18T18:16:59;10.40;99.90
34574;DHT22;20809;49.594;8.734;2023-02-18T18:20:02;10.40;99.90
34574;DHT22;20809;49.594;8.734;2023-02-18T18:23:05;10.40;99.90
34574;DHT22;20809;49.594;8.734;2023-02-18T18:26:07;10.30;99.90
34574;DHT22;20809;49.594;8.734;2023-02-18T18:29:08;10.20;99.90
34574;DHT22;20809;49.594;8.734;2023-02-18T18:32:09;10.10;99.90
34574;DHT22;20809;49.594;8.734;2023-02-18T18:38:21;10.00;99.90
34574;DHT22;20809;49.594;8.734;2023-02-18T18:41:21;9.90;99.90
34574;DHT22;20809;49.594;8.734;2023-02-18T18:44:22;9.90;99.90
34574;DHT22;20809;49.594;8.734;2023-02-18T18:47:23;9.90;99.90
34574;DHT22;20809;49.594;8.734;2023-02-18T18:50:25;9.80;99.90
34574;DHT22;20809;49.594;8.734;2023-02-18T18:53:29;9.90;99.90
34574;DHT22;20809;49.594;8.734;2023-02-18T18:56:30;9.90;99.90
34574;DHT22;20809;49.594;8.734;2023-02-18T18:59:31;9.90;99.90
34574;DHT22;20809;49.594;8.734;2023-02-18T19:02:31;9.90;99.90
34574;DHT22;20809;49.594;8.734;2023-02-18T19:05:34;9.90;99.90
34574;DHT22;20809;49.594;8.734;2023-02-18T19:08:36;9.90;99.90
34574;DHT22;20809;49.594;8.734;2023-02-18T19:11:37;10.00;99.90
34574;DHT22;20809;49.594;8.734;2023-02-18T19:14:38;10.00;99.90
34574;DHT22;20809;49.594;8.734;2023-02-18T19:17:39;10.00;99.90
34574;DHT22;20809;49.594;8.734;2023-02-18T19:20:44;10.00;99.90
34574;DHT22;20809;49.594;8.734;2023-02-18T19:23:45;10.00;99.90
34574;DHT22;20809;49.594;8.734;2023-02-18T19:26:46;10.00;99.90
34574;DHT22;20809;49.594;8.734;2023-02-18T19:29:46;10.10;99.90
34574;DHT22;20809;49.594;8.734;2023-02-18T19:33:00;10.10;99.90
34574;DHT22;20809;49.594;8.734;2023-02-18T19:36:08;10.00;99.90
34574;DHT22;20809;49.594;8.734;2023-02-18T19:39:10;10.10;99.90
34574;DHT22;20809;49.594;8.734;2023-02-18T19:42:10;10.10;99.90
34574;DHT22;20809;49.594;8.734;2023-02-18T19:45:12;10.10;99.90
34574;DHT22;20809;49.594;8.734;2023-02-18T19:48:13;10.10;99.90
34574;DHT22;20809;49.594;8.734;2023-02-18T19:51:14;10.10;99.90
34574;DHT22;20809;49.594;8.734;2023-02-18T19:54:15;10.00;99.90
34574;DHT22;20809;49.594;8.734;2023-02-18T19:57:16;10.00;99.90
34574;DHT22;20809;49.594;8.734;2023-02-18T20:00:19;10.00;99.90
34574;DHT22;20809;49.594;8.734;2023-02-18T20:03:19;10.10;99.90
34574;DHT22;20809;49.594;8.734;2023-02-18T20:06:20;10.10;99.90
34574;DHT22;20809;49.594;8.734;2023-02-18T20:09:21;10.10;99.90
34574;DHT22;20809;49.594;8.734;2023-02-18T20:12:25;10.10;99.90
34574;DHT22;20809;49.594;8.734;2023-02-18T20:15:26;10.10;99.90
34574;DHT22;20809;49.594;8.734;2023-02-18T20:18:27;10.10;99.90
34574;DHT22;20809;49.594;8.734;2023-02-18T20:21:27;10.10;99.90
34574;DHT22;20809;49.594;8.734;2023-02-18T20:24:30;10.10;99.90
34574;DHT22;20809;49.594;8.734;2023-02-18T20:27:31;10.00;99.90
34574;DHT22;20809;49.594;8.734;2023-02-18T20:30:32;10.10;99.90
34574;DHT22;20809;49.594;8.734;2023-02-18T20:33:34;10.10;99.90
34574;DHT22;20809;49.594;8.734;2023-02-18T20:36:35;10.00;99.90
34574;DHT22;20809;49.594;8.734;2023-02-18T20:39:35;10.00;99.90
34574;DHT22;20809;49.594;8.734;2023-02-18T20:42:36;10.00;99.90
34574;DHT22;20809;49.594;8.734;2023-02-18T20:45:38;10.00;99.90
34574;DHT22;20809;49.594;8.734;2023-02-18T20:48:39;10.00;99.90
34574;DHT22;20809;49.594;8.734;2023-02-18T20:51:40;10.00;99.90
34574;DHT22;20809;49.594;8.734;2023-02-18T20:54:41;10.00;99.90
34574;DHT22;20809;49.594;8.734;2023-02-18T20:57:42;10.00;99.90
34574;DHT22;20809;49.594;8.734;2023-02-18T21:00:42;10.00;99.90
34574;DHT22;20809;49.594;8.734;2023-02-18T21:03:45;10.00;99.90
34574;DHT22;20809;49.594;8.734;2023-02-18T21:06:47;10.00;99.90
34574;DHT22;20809;49.594;8.734;2023-02-18T21:09:49;10.00;99.90
34574;DHT22;20809;49.594;8.734;2023-02-18T21:12:50;10.00;99.90
34574;DHT22;20809;49.594;8.734;2023-02-18T21:15:51;10.00;99.90
34574;DHT22;20809;49.594;8.734;2023-02-18T21:18:53;9.90;99.90
34574;DHT22;20809;49.594;8.734;2023-02-18T21:21:54;9.90;99.90
34574;DHT22;20809;49.594;8.734;2023-02-18T21:24:56;10.00;99.90
34574;DHT22;20809;49.594;8.734;2023-02-18T21:27:58;9.90;99.90
34574;DHT22;20809;49.594;8.734;2023-02-18T21:31:00;9.90;99.90
34574;DHT22;20809;49.594;8.734;2023-02-18T21:34:04;9.90;99.90
34574;DHT22;20809;49.594;8.734;2023-02-18T21:37:06;9.90;99.90